Monday, July 23, 2018, 2:13 AM EDT
Back to Local

KHGR, Hagerstown Regional Airport

Location: Hagerstown, MD, United States Lat: 39.7
Local Time: 2:13 AM EDT ( 6:13 GMT) Lon: -77.733
Time Zone: US/Eastern Elev: 705 ft

Show me the last for .
Show Decoded

2018-07-23 01:53 METAR KHGR 230553Z AUTO 00000KT 10SM OVC016 23/20 A2989 RMK AO2 LTG DSNT SE
                 SLP125 T02330200 10250 20233 58002 =
2018-07-23 01:02 METAR KHGR 230502Z AUTO 00000KT 10SM BKN021 23/21 A2991 RMK AO2 T02330206 =
2018-07-23 00:53 METAR KHGR 230453Z AUTO 00000KT 10SM SCT022 SCT030 BKN040 23/21 A2991 RMK AO2
                 SLP130 T02330206 402560172 =
2018-07-22 23:53 METAR KHGR 230353Z AUTO 12004KT 10SM SCT050 SCT075 24/21 A2991 RMK AO2 SLP134
                 T02390206 =
2018-07-22 22:53 METAR KHGR 230253Z AUTO 08003KT 10SM FEW040 SCT050 BKN060 24/21 A2990 RMK AO2
                 LTG DSNT E SLP128 T02390211 51010 =
2018-07-22 21:53 METAR KHGR 230153Z 08005KT 10SM FEW037 SCT060 SCT080 23/21 A2989 RMK AO2 SLP127
                 T02330211 =
2018-07-22 20:53 METAR KHGR 230053Z 05005KT 10SM SCT042 24/21 A2987 RMK AO2 SLP121 T02390211 =
2018-07-22 19:53 METAR KHGR 222353Z 00000KT 10SM FEW018 FEW032 25/21 A2987 RMK AO2 SLP118 60006
                 T02500206 10256 20228 51010 =
2018-07-22 19:49 METAR KHGR 222349Z 13004KT 10SM FEW020 SCT032 25/21 A2986 RMK AO2 =
2018-07-22 18:53 METAR KHGR 222253Z 09005KT 10SM FEW014 SCT021 BKN028 25/21 A2985 RMK AO2 SLP114
                 T02500211 =
2018-07-22 18:44 METAR KHGR 222244Z 00000KT 10SM SCT014 BKN023 BKN100 25/22 A2985 RMK AO2
                 T02500217 =
2018-07-22 18:29 METAR KHGR 222229Z 11004KT 10SM BKN014 OVC100 25/21 A2985 RMK AO2 T02500211 =
2018-07-22 18:25 METAR KHGR 222225Z 11003KT 10SM SCT016 OVC100 25/21 A2985 RMK AO2 T02500211 =
2018-07-22 17:53 METAR KHGR 222153Z 08004KT 10SM BKN015 25/22 A2984 RMK AO2 RAE2057 SLP108 P0000
                 T02500217 =
2018-07-22 16:53 METAR KHGR 222053Z 08004KT 8SM -RA FEW040 BKN048 OVC100 23/21 A2984 RMK AO2
                 SLP110 P0004 60006 T02330211 50001 =
2018-07-22 15:53 METAR KHGR 221953Z 12006KT 6SM -RA BR FEW023 BKN031 OVC080 23/21 A2985 RMK AO2
                 LTG DSNT E RAB13 SLP112 P0002 T02330211 =
2018-07-22 15:05 METAR KHGR 221905Z 12008KT 10SM SCT025 SCT038 BKN060 25/19 A2984 RMK AO2
                 T02500194 =
2018-07-22 14:53 METAR KHGR 221853Z 11008KT 10SM FEW020 BKN025 OVC055 25/19 A2984 RMK AO2 SLP109
                 T02500194 =
2018-07-22 13:53 METAR KHGR 221753Z 17009KT 10SM BKN025 OVC034 26/19 A2984 RMK AO2 SLP109
                 T02560194 10256 20183 51001 =
2018-07-22 12:53 METAR KHGR 221653Z 14008KT 10SM BKN023 OVC048 26/19 A2984 RMK AO2 SLP109
                 T02560189 =
2018-07-22 11:53 METAR KHGR 221553Z 13008KT 10SM BKN020 BKN060 24/18 A2984 RMK AO2 SLP110
                 T02390183 =
2018-07-22 11:35 METAR KHGR 221535Z 14009KT 10SM BKN020 BKN060 23/18 A2984 RMK AO2 T02330183 =
2018-07-22 11:00 METAR KHGR 221500Z 16009KT 10SM SCT018 23/17 A2984 RMK AO2 T02330172 =
2018-07-22 10:53 METAR KHGR 221453Z 18010KT 10SM BKN018 24/18 A2984 RMK AO2 SLP109 T02390178
                 51016 =
2018-07-22 09:53 METAR KHGR 221353Z 15005KT 10SM SCT013 21/17 A2983 RMK AO2 SLP107 T02060172 =
2018-07-22 08:53 METAR KHGR 221253Z 23004KT 10SM CLR 20/17 A2981 RMK AO2 SLP099 T02000167 =
2018-07-22 07:53 METAR KHGR 221153Z 19007KT 10SM CLR 18/17 A2979 RMK AO2 SLP094 60003 70217
                 T01830167 10183 20172 51027 =
2018-07-22 07:39 METAR KHGR 221139Z 19005KT 10SM SCT018 18/17 A2978 RMK AO2 T01830167 =
2018-07-22 06:53 METAR KHGR 221053Z 17004KT 10SM OVC019 18/17 A2976 RMK AO2 SLP086 T01780167 =
2018-07-22 05:53 METAR KHGR 220953Z AUTO 22006KT 10SM SCT004 OVC020 17/16 A2974 RMK AO2 SLP079
                 T01720161 =
2018-07-22 05:30 METAR KHGR 220930Z AUTO 22007KT 10SM FEW005 OVC019 17/16 A2973 RMK AO2 T01720161
                 =
2018-07-22 04:53 METAR KHGR 220853Z AUTO 22006KT 10SM OVC015 17/16 A2971 RMK AO2 SLP067 60003
                 T01720161 53001 =
2018-07-22 04:18 METAR KHGR 220818Z AUTO 23005KT 10SM SCT007 OVC014 17/16 A2970 RMK AO2 T01720161
                 =
2018-07-22 03:53 METAR KHGR 220753Z AUTO 22004KT 10SM OVC007 17/17 A2970 RMK AO2 RAB11E48 CIG
                 004V009 SLP062 P0002 T01720167 =
2018-07-22 03:40 METAR KHGR 220740Z AUTO 23005KT 7SM -RA BKN006 OVC013 17/16 A2969 RMK AO2 RAB11
                 CIG 004V011 P0002 T01720161 =
2018-07-22 03:29 METAR KHGR 220729Z AUTO 22006KT 3SM RA BR SCT004 OVC013 17/16 A2970 RMK AO2
                 RAB11 P0002 T01720161 =
2018-07-22 03:22 METAR KHGR 220722Z AUTO 23005KT 4SM -RA BR OVC013 17/16 A2969 RMK AO2 RAB11
                 P0001 T01720161 =
2018-07-22 02:53 METAR KHGR 220653Z AUTO 29007KT 10SM FEW005 FEW010 OVC018 17/16 A2968 RMK AO2
                 RAE14 SLP058 P0001 T01720161 =
2018-07-22 02:45 METAR KHGR 220645Z AUTO 29007KT 10SM SCT005 SCT012 OVC019 17/16 A2969 RMK AO2
                 RAE14 P0001 T01720161 =
2018-07-22 02:41 METAR KHGR 220641Z AUTO 30007KT 10SM BKN004 BKN010 OVC019 17/16 A2968 RMK AO2
                 RAE14 CIG 003V009 P0001 T01720161 =

Support USWX by starting your Amazon purchase here.